createdAt,value
2023-04-02T00:03:11.552Z,50.6
2023-04-02T00:08:33.783Z,50.6
2023-04-02T00:14:24.530Z,50.6
2023-04-02T00:20:15.463Z,50.5
2023-04-02T00:26:09.577Z,50.5
2023-04-02T00:32:01.246Z,50.4
2023-04-02T00:37:53.706Z,50.4
2023-04-02T00:43:45.246Z,50.4
2023-04-02T00:49:37.223Z,50.3
2023-04-02T00:55:28.694Z,50.3
2023-04-02T01:01:04.467Z,50.3
2023-04-02T01:06:59.421Z,50.2
2023-04-02T01:12:51.426Z,50.2
2023-04-02T01:18:43.827Z,50.1
2023-04-02T01:24:36.125Z,50.1
2023-04-02T01:30:27.608Z,50.1
2023-04-02T01:36:19.369Z,50
2023-04-02T01:42:10.910Z,49.9
2023-04-02T01:48:02.397Z,49.9
2023-04-02T01:53:53.697Z,49.9
2023-04-02T01:59:30.016Z,49.9
2023-04-02T02:05:22.686Z,49.8
2023-04-02T02:11:14.331Z,49.8
2023-04-02T02:17:06.535Z,49.8
2023-04-02T02:22:57.941Z,49.7
2023-04-02T02:28:49.593Z,49.7
2023-04-02T02:34:41.401Z,49.6
2023-04-02T02:40:34.076Z,49.6
2023-04-02T02:46:25.997Z,49.6
2023-04-02T02:52:20.070Z,49.5
2023-04-02T02:58:11.752Z,49.4
2023-04-02T03:04:04.546Z,49.4
2023-04-02T03:09:56.199Z,49.4
2023-04-02T03:15:47.206Z,49.4
2023-04-02T03:21:23.509Z,49.3
2023-04-02T03:27:00.934Z,49.3
2023-04-02T03:32:52.997Z,49.3
2023-04-02T03:38:29.962Z,49.2
2023-04-02T03:44:20.814Z,49.2
2023-04-02T03:50:12.919Z,49.1
2023-04-02T03:56:16.658Z,49.1
2023-04-02T04:01:52.572Z,49.1
2023-04-02T04:07:44.387Z,49
2023-04-02T04:13:35.323Z,48.9
2023-04-02T04:19:28.458Z,48.9
2023-04-02T04:25:19.658Z,48.9
2023-04-02T04:31:11.851Z,48.8
2023-04-02T04:37:04.006Z,48.8
2023-04-02T04:42:55.753Z,48.8
2023-04-02T04:48:48.024Z,48.8
2023-04-02T04:54:38.987Z,48.7
2023-04-02T05:00:49.088Z,48.7
2023-04-02T05:06:42.474Z,48.6
2023-04-02T05:12:33.276Z,48.6
2023-04-02T05:18:25.105Z,48.6
2023-04-02T05:24:03.869Z,48.5
2023-04-02T05:29:54.541Z,48.5
2023-04-02T05:35:45.958Z,48.4
2023-04-02T05:41:37.501Z,48.4
2023-04-02T05:47:29.034Z,48.3
2023-04-02T05:53:21.028Z,48.3
2023-04-02T05:59:45.380Z,48.3
2023-04-02T06:05:37.233Z,48.2
2023-04-02T06:11:30.261Z,48.1
2023-04-02T06:17:21.867Z,48.1
2023-04-02T06:23:12.498Z,48.1
2023-04-02T06:28:48.480Z,48.1
2023-04-02T06:34:40.051Z,48
2023-04-02T06:40:15.473Z,47.9
2023-04-02T06:45:52.060Z,47.9
2023-04-02T06:51:29.264Z,47.9
2023-04-02T06:57:05.588Z,47.8
2023-04-02T07:02:42.628Z,47.8
2023-04-02T07:08:19.851Z,47.8
2023-04-02T07:13:40.737Z,47.8
2023-04-02T07:19:17.929Z,47.7
2023-04-02T07:24:56.337Z,47.7
2023-04-02T07:30:32.379Z,47.6
2023-04-02T07:36:08.687Z,47.6
2023-04-02T07:41:45.175Z,47.9
2023-04-02T07:47:40.280Z,48.4
2023-04-02T07:53:01.270Z,48.9
2023-04-02T07:58:53.587Z,49.4
2023-04-02T08:04:46.416Z,50
2023-04-02T08:10:22.956Z,50.7
2023-04-02T08:16:17.524Z,51.3
2023-04-02T08:22:06.185Z,52
2023-04-02T08:27:58.315Z,52.8
2023-04-02T08:33:50.268Z,53.4
2023-04-02T08:39:42.046Z,54
2023-04-02T08:45:42.020Z,54.6
2023-04-02T08:51:18.341Z,55.1
2023-04-02T08:56:54.679Z,55.8
2023-04-02T09:02:17.431Z,56
2023-04-02T09:07:56.415Z,56
2023-04-02T09:13:48.102Z,56
2023-04-02T09:19:54.176Z,56.4
2023-04-02T09:25:51.160Z,56.4
2023-04-02T09:31:33.694Z,56.4
2023-04-02T09:37:39.356Z,56.4
2023-04-02T09:43:28.394Z,56.4
2023-04-02T09:49:21.718Z,57.1
2023-04-02T09:55:13.267Z,57.1
2023-04-02T10:01:04.468Z,57.1
2023-04-02T10:06:44.809Z,57.1
2023-04-02T10:12:49.333Z,57.1
2023-04-02T10:18:43.913Z,57.2
2023-04-02T10:24:47.631Z,57.1
2023-04-02T10:30:39.842Z,57.7
2023-04-02T10:36:31.802Z,58.3
2023-04-02T10:42:23.352Z,58.6
2023-04-02T10:48:27.000Z,58.8
2023-04-02T10:54:19.822Z,58.7
2023-04-02T11:00:08.815Z,58.7
2023-04-02T11:06:03.811Z,59.4
2023-04-02T11:11:54.210Z,60
2023-04-02T11:17:49.852Z,60.4
2023-04-02T11:23:55.869Z,60.6
2023-04-02T11:29:32.726Z,60.6
2023-04-02T11:35:48.898Z,60.6
2023-04-02T11:41:35.707Z,61.3
2023-04-02T11:47:33.009Z,61.3
2023-04-02T11:53:35.241Z,61.3
2023-04-02T11:59:26.902Z,61.3
2023-04-02T12:05:21.511Z,61.3
2023-04-02T12:11:24.218Z,61.3
2023-04-02T12:17:00.625Z,61.4
2023-04-02T12:22:53.779Z,61.4
2023-04-02T12:28:45.013Z,61.4
2023-04-02T12:34:36.859Z,61.4
2023-04-02T12:40:27.755Z,61.4
2023-04-02T12:46:19.327Z,61.4
2023-04-02T12:52:11.201Z,61.4
2023-04-02T12:58:03.541Z,61.4
2023-04-02T13:03:55.154Z,61.4
2023-04-02T13:09:46.363Z,61.7
2023-04-02T13:15:37.458Z,61.7
2023-04-02T13:21:29.104Z,61.6
2023-04-02T13:27:20.169Z,61.9
2023-04-02T13:32:56.290Z,61.9
2023-04-02T13:38:33.567Z,61.9
2023-04-02T13:44:25.223Z,61.9
2023-04-02T13:50:16.738Z,61.9
2023-04-02T13:56:09.195Z,61.9
2023-04-02T14:01:29.908Z,61.8
2023-04-02T14:07:09.076Z,61.8
2023-04-02T14:13:01.081Z,61.8
2023-04-02T14:18:53.351Z,61.8
2023-04-02T14:24:46.376Z,61.8
2023-04-02T14:30:07.924Z,61.7
2023-04-02T14:35:44.986Z,61.7
2023-04-02T14:41:37.236Z,61.6
2023-04-02T14:47:29.239Z,61.6
2023-04-02T14:53:20.596Z,61.5
2023-04-02T14:59:12.568Z,61.5
2023-04-02T15:05:05.282Z,61.4
2023-04-02T15:11:10.023Z,61.4
2023-04-02T15:17:13.633Z,61.4
2023-04-02T15:23:04.444Z,61.3
2023-04-02T15:28:49.909Z,61.3
2023-04-02T15:34:49.191Z,61.3
2023-04-02T15:40:42.020Z,61.1
2023-04-02T15:46:34.472Z,61.1
2023-04-02T15:52:11.027Z,61.1
2023-04-02T15:58:05.757Z,61
2023-04-02T16:03:58.388Z,61
2023-04-02T16:09:36.730Z,60.9
2023-04-02T16:15:25.210Z,60.9
2023-04-02T16:21:33.957Z,60.8
2023-04-02T16:27:41.528Z,60.8
2023-04-02T16:33:52.355Z,60.7
2023-04-02T16:40:13.079Z,60.6
2023-04-02T16:46:18.516Z,60.6
2023-04-02T16:52:15.539Z,60.6
2023-04-02T16:58:01.140Z,60.5
2023-04-02T17:03:38.231Z,60.4
2023-04-02T17:09:29.925Z,60.4
2023-04-02T17:15:28.110Z,60.4
2023-04-02T17:21:20.247Z,60.3
2023-04-02T17:27:20.487Z,60.3
2023-04-02T17:33:13.109Z,60.2
2023-04-02T17:39:04.377Z,60.2
2023-04-02T17:44:40.640Z,60.1
2023-04-02T17:50:02.075Z,60.1
2023-04-02T17:55:56.247Z,60
2023-04-02T18:01:47.300Z,59.9
2023-04-02T18:07:43.080Z,59.9
2023-04-02T18:13:34.759Z,59.9
2023-04-02T18:19:27.472Z,59.8
2023-04-02T18:25:20.297Z,59.8
2023-04-02T18:30:57.203Z,59.8
2023-04-02T18:36:48.992Z,59.7
2023-04-02T18:42:40.313Z,59.6
2023-04-02T18:48:31.900Z,59.6
2023-04-02T18:54:22.848Z,59.5
2023-04-02T19:00:14.242Z,59.5
2023-04-02T19:06:09.241Z,59.4
2023-04-02T19:11:45.372Z,59.4
2023-04-02T19:17:36.961Z,59.3
2023-04-02T19:23:28.985Z,59.3
2023-04-02T19:29:22.953Z,59.3
2023-04-02T19:35:14.701Z,59.2
2023-04-02T19:40:50.325Z,59.1
2023-04-02T19:46:41.812Z,59.1
2023-04-02T19:52:18.011Z,59
2023-04-02T19:57:57.934Z,59
2023-04-02T20:04:04.400Z,58.9
2023-04-02T20:09:40.429Z,58.9
2023-04-02T20:15:32.671Z,58.8
2023-04-02T20:21:24.821Z,58.8
2023-04-02T20:27:01.072Z,58.8
2023-04-02T20:32:05.973Z,58.7
2023-04-02T20:37:58.663Z,58.6
2023-04-02T20:43:20.215Z,58.6
2023-04-02T20:54:48.692Z,58.5
2023-04-02T21:00:24.505Z,58.4
2023-04-02T21:06:00.817Z,58.4
2023-04-02T21:11:52.524Z,58.4
2023-04-02T21:17:44.226Z,58.3
2023-04-02T21:23:37.053Z,58.3
2023-04-02T21:29:13.429Z,58.3
2023-04-02T21:34:56.674Z,58.2
2023-04-02T21:40:50.153Z,58.1
2023-04-02T21:46:42.676Z,58.1
2023-04-02T21:52:34.960Z,58.1
2023-04-02T21:58:11.669Z,58
2023-04-02T22:04:21.373Z,57.9
2023-04-02T22:10:12.924Z,57.9
2023-04-02T22:16:05.004Z,57.8
2023-04-02T22:21:57.166Z,57.8
2023-04-02T22:33:10.475Z,57.7
2023-04-02T22:38:31.199Z,57.7
2023-04-02T22:44:22.361Z,57.6
2023-04-02T22:50:13.386Z,57.6
2023-04-02T22:56:05.080Z,57.5
2023-04-02T23:01:26.785Z,57.4
2023-04-02T23:07:03.566Z,57.4
2023-04-02T23:12:24.988Z,57.4
2023-04-02T23:17:45.986Z,57.3
2023-04-02T23:23:21.009Z,57.3
2023-04-02T23:28:41.741Z,57.3
2023-04-02T23:34:02.707Z,57.3
2023-04-02T23:39:54.542Z,57.2
2023-04-02T23:45:46.562Z,57.1
2023-04-02T23:51:38.191Z,57.1
2023-04-02T23:57:29.367Z,57
